Escondido, CA (92026)

9:48 PM PDT on August 30, 2015 (GMT -0700)
Montreux | | Change Station
CLOSE
Current Station
Personal Weather Station
Location: Escondido, CA
Elevation: 1007 ft
Nearby Weather Stations

Elev 1007 ft 33.18 °N, 117.10 °W | Updated 2 minutes ago

Clear
Clear
68.8 °F
Feels Like 68.8 °F
N
2.0
Wind Variable Wind from WSW
Gusts 2.0 mph

Today
High -- | Low -- °F
--% Chance of Precip.
Yesterday
High -- | Low -- °F
Precip. -- in
6:21 AM 7:16 PM
Full, 97% visible
Pressure 29.86 in
Visibility 9.0 miles
Clouds Mostly Cloudy 1000 ft
Dew Point 65 °F
Humidity 88%
Rainfall 0.00 in
Snow Depth Not available.
UV 0 out of 12
Pollen 5.90 out of 12
Air Quality Not available.
Flu Activity Not available.
SPECI KCRQ 310424Z AUTO 19005KT 9SM BKN010 21/18 A2986 RMK AO2 T02110183
Pressure 29.86 in
Visibility 9.0 miles
Clouds Mostly Cloudy 1000 ft
Dew Point 65 °F
Humidity 88%
Rainfall 0.00 in
Snow Depth Not available.
UV 0 out of 12
Pollen 5.90 out of 12
Air Quality Not available.
Flu Activity Not available.
SPECI KCRQ 310424Z AUTO 19005KT 9SM BKN010 21/18 A2986 RMK AO2 T02110183

10-Day Weather Forecast

×

Almanac

Astronomy

Aug. 30, 2015 Rise Set
Actual Time
Civil Twilight
Nautical Twilight
Astronomical Twilight
Moon
Length of Visible Light
Length of Day
Tomorrow will be .
, % of the Moon is Illuminated

Today's Extremes

State Highs State Lows

Community

WunderPhotos

Upload Photos

1,851,207 photos uploaded!

WunderBlogs® & News

Nearby

Air Quality

  Air Quality AQ Index Pollutant
Not available.

Snow Depth

Station Depth Elevation

Earthquake Activity

City Distance Mag. Time & Date
Minimum magnitude displayed is 2.5.

Coastal Water Temperatures

Place Temperature

Stations

Nearby Weather Stations

Station Location Temp. Windchill Dew Point Humidity Wind Precip. Elev Updated Type